createdAt,value
2018-01-28T00:02:17.034Z,18.70
2018-01-28T00:04:44.572Z,18.03
2018-01-28T00:07:12.283Z,18.30
2018-01-28T00:09:39.826Z,16.33
2018-01-28T00:12:07.365Z,17.83
2018-01-28T00:14:35.047Z,17.10
2018-01-28T00:17:02.629Z,16.67
2018-01-28T00:19:30.167Z,18.97
2018-01-28T00:21:58.505Z,16.30
2018-01-28T00:24:26.084Z,15.97
2018-01-28T00:26:53.625Z,17.07
2018-01-28T00:29:21.207Z,16.30
2018-01-28T00:31:49.827Z,16.57
2018-01-28T00:34:18.160Z,15.47
2018-01-28T00:36:45.892Z,15.57
2018-01-28T00:39:13.480Z,15.17
2018-01-28T00:41:41.841Z,14.50
2018-01-28T00:44:09.422Z,13.00
2018-01-28T00:46:36.934Z,14.90
2018-01-28T00:49:05.277Z,15.70
2018-01-28T00:51:32.778Z,15.47
2018-01-28T00:54:00.349Z,15.53
2018-01-28T00:56:27.948Z,14.93
2018-01-28T00:58:55.567Z,15.97
2018-01-28T01:01:23.809Z,15.10
2018-01-28T01:03:51.317Z,15.60
2018-01-28T01:06:18.983Z,14.67
2018-01-28T01:08:46.561Z,14.07
2018-01-28T01:11:14.115Z,15.33
2018-01-28T01:13:41.685Z,15.07
2018-01-28T01:16:09.262Z,14.60
2018-01-28T01:18:36.795Z,14.77
2018-01-28T01:21:05.673Z,15.13
2018-01-28T01:23:33.249Z,14.43
2018-01-28T01:26:01.556Z,14.80
2018-01-28T01:28:29.165Z,14.10
2018-01-28T01:30:57.510Z,14.90
2018-01-28T01:33:25.856Z,15.17
2018-01-28T01:35:53.350Z,14.97
2018-01-28T01:38:20.928Z,13.93
2018-01-28T01:40:48.479Z,14.53
2018-01-28T01:43:16.184Z,14.43
2018-01-28T01:45:43.725Z,14.67
2018-01-28T01:48:11.324Z,14.13
2018-01-28T01:50:38.849Z,14.90
2018-01-28T01:53:06.380Z,14.30
2018-01-28T01:55:33.899Z,13.70
2018-01-28T01:58:01.531Z,14.63
2018-01-28T02:00:29.839Z,14.23
2018-01-28T02:02:57.417Z,14.60
2018-01-28T02:05:25.097Z,14.33
2018-01-28T02:07:54.639Z,15.00
2018-01-28T02:10:22.185Z,14.53
2018-01-28T02:12:49.801Z,14.77
2018-01-28T02:15:17.343Z,15.43
2018-01-28T02:17:44.875Z,15.03
2018-01-28T02:20:12.529Z,14.40
2018-01-28T02:22:40.104Z,14.57
2018-01-28T02:25:07.685Z,14.90
2018-01-28T02:27:35.602Z,14.93
2018-01-28T02:30:03.541Z,14.20
2018-01-28T02:32:31.091Z,14.97
2018-01-28T02:34:58.747Z,15.07
2018-01-28T02:37:26.289Z,15.33
2018-01-28T02:39:53.845Z,15.27
2018-01-28T02:42:22.357Z,15.30
2018-01-28T02:44:49.944Z,15.60
2018-01-28T02:47:17.480Z,15.70
2018-01-28T02:49:45.073Z,15.57
2018-01-28T02:52:12.657Z,15.77
2018-01-28T02:54:40.231Z,14.83
2018-01-28T02:57:07.974Z,15.77
2018-01-28T02:59:35.548Z,15.30
2018-01-28T03:02:03.849Z,15.70
2018-01-28T03:04:31.454Z,16.73
2018-01-28T03:06:59.028Z,16.13
2018-01-28T03:09:26.576Z,15.40
2018-01-28T03:11:54.185Z,15.43
2018-01-28T03:14:21.765Z,15.10
2018-01-28T03:16:49.246Z,16.27
2018-01-28T03:19:16.891Z,15.90
2018-01-28T03:21:44.427Z,16.63
2018-01-28T03:24:11.999Z,16.47
2018-01-28T03:26:40.505Z,16.57
2018-01-28T03:29:08.056Z,16.27
2018-01-28T03:31:35.664Z,15.90
2018-01-28T03:34:03.348Z,16.03
2018-01-28T03:36:30.916Z,16.07
2018-01-28T03:38:58.456Z,15.60
2018-01-28T03:41:26.018Z,16.30
2018-01-28T03:43:53.554Z,16.90
2018-01-28T03:46:21.091Z,15.83
2018-01-28T03:48:48.827Z,16.10
2018-01-28T03:51:16.470Z,15.93
2018-01-28T03:53:44.048Z,16.00
2018-01-28T03:56:12.388Z,15.13
2018-01-28T03:58:39.965Z,15.90
2018-01-28T04:01:08.247Z,15.40
2018-01-28T04:03:36.005Z,16.13
2018-01-28T04:06:03.596Z,16.30
2018-01-28T04:08:31.186Z,15.40
2018-01-28T04:10:58.920Z,15.93
2018-01-28T04:13:26.501Z,15.90
2018-01-28T04:15:54.040Z,15.97
2018-01-28T04:18:21.628Z,16.17
2018-01-28T04:20:49.877Z,16.13
2018-01-28T04:23:17.444Z,16.10
2018-01-28T04:25:45.953Z,16.23
2018-01-28T04:28:13.500Z,17.47
2018-01-28T04:30:41.016Z,16.23
2018-01-28T04:33:08.667Z,15.33
2018-01-28T04:35:36.212Z,15.73
2018-01-28T04:38:03.695Z,17.53
2018-01-28T04:40:31.264Z,16.70
2018-01-28T04:42:59.628Z,18.50
2018-01-28T04:45:27.910Z,16.33
2018-01-28T04:47:56.232Z,17.00
2018-01-28T04:50:23.804Z,18.10
2018-01-28T04:52:52.111Z,17.03
2018-01-28T04:55:19.676Z,16.63
2018-01-28T04:57:47.166Z,16.43
2018-01-28T05:00:14.753Z,18.07
2018-01-28T05:02:42.345Z,17.63
2018-01-28T05:05:09.934Z,18.57
2018-01-28T05:07:37.473Z,17.83
2018-01-28T05:10:05.426Z,17.10
2018-01-28T05:12:33.003Z,17.70
2018-01-28T05:15:00.539Z,16.50
2018-01-28T05:17:28.095Z,17.40
2018-01-28T05:19:55.689Z,17.13
2018-01-28T05:22:23.276Z,18.67
2018-01-28T05:24:50.961Z,18.03
2018-01-28T05:27:18.522Z,16.63
2018-01-28T05:29:46.060Z,16.60
2018-01-28T05:32:13.660Z,16.67
2018-01-28T05:34:41.241Z,17.63
2018-01-28T05:37:08.824Z,17.33
2018-01-28T05:39:36.451Z,17.17
2018-01-28T05:42:04.759Z,16.97
2018-01-28T05:44:32.308Z,17.67
2018-01-28T05:47:00.960Z,17.53
2018-01-28T05:49:28.584Z,17.43
2018-01-28T05:51:56.164Z,17.00
2018-01-28T05:54:23.852Z,17.20
2018-01-28T05:56:51.419Z,16.67
2018-01-28T05:59:18.996Z,16.83
2018-01-28T06:01:46.692Z,17.93
2018-01-28T06:04:14.989Z,16.67
2018-01-28T06:06:42.565Z,17.27
2018-01-28T06:09:10.124Z,17.47
2018-01-28T06:11:37.704Z,17.07
2018-01-28T06:14:05.275Z,16.53
2018-01-28T06:16:32.980Z,17.97
2018-01-28T06:19:00.557Z,16.83
2018-01-28T06:21:28.190Z,17.10
2018-01-28T06:23:56.088Z,17.33
2018-01-28T06:26:24.437Z,16.43
2018-01-28T06:28:51.990Z,16.07
2018-01-28T06:31:20.503Z,16.87
2018-01-28T06:33:48.073Z,17.57
2018-01-28T06:36:15.649Z,16.80
2018-01-28T06:38:44.012Z,17.20
2018-01-28T06:41:12.357Z,15.77
2018-01-28T06:43:39.936Z,15.93
2018-01-28T06:46:07.820Z,15.47
2018-01-28T06:48:35.393Z,16.70
2018-01-28T06:51:03.002Z,16.27
2018-01-28T06:53:30.740Z,16.60
2018-01-28T06:55:58.324Z,16.40
2018-01-28T06:58:25.859Z,17.50
2018-01-28T07:00:53.564Z,17.67
2018-01-28T07:03:21.134Z,16.80
2018-01-28T07:05:48.733Z,17.33
2018-01-28T07:08:17.080Z,17.70
2018-01-28T07:10:45.421Z,17.40
2018-01-28T07:13:12.898Z,16.43
2018-01-28T07:15:41.314Z,17.87
2018-01-28T07:18:08.894Z,17.53
2018-01-28T07:20:38.218Z,17.40
2018-01-28T07:23:06.112Z,18.10
2018-01-28T07:25:33.688Z,18.10
2018-01-28T07:28:01.985Z,18.27
2018-01-28T07:30:30.729Z,17.33
2018-01-28T07:32:58.273Z,16.97
2018-01-28T07:35:25.824Z,17.23
2018-01-28T07:37:53.720Z,18.03
2018-01-28T07:40:22.040Z,19.20
2018-01-28T07:42:49.640Z,17.53
2018-01-28T07:45:17.212Z,18.10
2018-01-28T07:47:44.791Z,17.00
2018-01-28T07:50:13.204Z,17.30
2018-01-28T07:52:40.775Z,18.50
2018-01-28T07:55:08.334Z,17.97
2018-01-28T07:57:36.655Z,16.97
2018-01-28T08:00:04.258Z,17.40
2018-01-28T08:02:32.570Z,17.20
2018-01-28T08:05:00.145Z,17.20
2018-01-28T08:07:28.488Z,17.17
2018-01-28T08:09:59.007Z,17.60
2018-01-28T08:12:28.399Z,15.87
2018-01-28T08:14:56.163Z,16.23
2018-01-28T08:17:23.700Z,17.33
2018-01-28T08:19:52.044Z,16.77
2018-01-28T08:22:19.737Z,16.20
2018-01-28T08:24:47.317Z,17.30
2018-01-28T08:27:16.795Z,16.10
2018-01-28T08:29:44.358Z,16.33
2018-01-28T08:32:12.734Z,16.23
2018-01-28T08:34:41.082Z,16.13
2018-01-28T08:37:08.653Z,16.70
2018-01-28T08:39:37.000Z,16.10
2018-01-28T08:42:04.585Z,16.70
2018-01-28T08:44:32.148Z,16.40
2018-01-28T08:46:59.710Z,16.97
2018-01-28T08:49:27.218Z,16.87
2018-01-28T08:51:54.852Z,16.33
2018-01-28T08:54:22.429Z,16.47
2018-01-28T08:56:49.967Z,17.40
2018-01-28T08:59:17.633Z,17.53
2018-01-28T09:01:45.256Z,17.57
2018-01-28T09:04:12.828Z,16.67
2018-01-28T09:06:40.429Z,17.07
2018-01-28T09:09:08.169Z,18.33
2018-01-28T09:11:35.820Z,18.33
2018-01-28T09:14:03.484Z,18.33
2018-01-28T09:16:31.094Z,17.93
2018-01-28T09:18:58.636Z,18.90
2018-01-28T09:21:26.315Z,18.87
2018-01-28T09:23:54.658Z,18.33
2018-01-28T09:26:22.277Z,17.83
2018-01-28T09:28:49.992Z,18.73
2018-01-28T09:31:17.567Z,18.60
2018-01-28T09:33:45.158Z,18.60
2018-01-28T09:36:13.696Z,17.37
2018-01-28T09:38:41.300Z,18.43
2018-01-28T09:41:09.820Z,18.50
2018-01-28T09:43:37.525Z,19.27
2018-01-28T09:46:05.149Z,18.50
2018-01-28T09:48:32.700Z,18.60
2018-01-28T09:51:00.476Z,19.20
2018-01-28T09:53:28.121Z,18.20
2018-01-28T09:55:55.723Z,19.53
2018-01-28T09:58:23.467Z,18.90
2018-01-28T10:00:51.803Z,19.47
2018-01-28T10:03:19.445Z,19.20
2018-01-28T10:05:47.069Z,18.50
2018-01-28T10:08:14.607Z,17.57
2018-01-28T10:10:42.169Z,17.57
2018-01-28T10:13:09.769Z,18.43
2018-01-28T10:15:37.446Z,18.03
2018-01-28T10:18:05.040Z,17.37
2018-01-28T10:20:33.387Z,17.93
2018-01-28T10:23:00.954Z,18.63
2018-01-28T10:25:28.568Z,18.30
2018-01-28T10:27:56.211Z,19.07
2018-01-28T10:30:23.869Z,17.77
2018-01-28T10:32:51.443Z,17.97
2018-01-28T10:35:19.197Z,18.27
2018-01-28T10:37:46.816Z,16.83
2018-01-28T10:40:14.426Z,17.23
2018-01-28T10:42:42.392Z,17.67
2018-01-28T10:45:09.959Z,17.50
2018-01-28T10:47:37.556Z,17.87
2018-01-28T10:50:05.177Z,18.43
2018-01-28T10:52:32.854Z,17.93
2018-01-28T10:55:01.459Z,17.67
2018-01-28T10:57:29.965Z,18.40
2018-01-28T10:59:57.536Z,17.10
2018-01-28T11:02:25.268Z,17.10
2018-01-28T11:04:52.829Z,17.80
2018-01-28T11:07:20.369Z,17.13
2018-01-28T11:09:47.920Z,17.67
2018-01-28T11:12:15.571Z,16.67
2018-01-28T11:14:43.267Z,17.13
2018-01-28T11:17:10.846Z,16.63
2018-01-28T11:19:38.571Z,16.47
2018-01-28T11:22:06.214Z,15.90
2018-01-28T11:24:34.918Z,15.73
2018-01-28T11:27:02.540Z,15.93
2018-01-28T11:29:30.225Z,16.37
2018-01-28T11:31:57.884Z,15.60
2018-01-28T11:34:25.565Z,16.13
2018-01-28T11:36:54.052Z,16.17
2018-01-28T11:39:21.688Z,15.03
2018-01-28T11:41:49.392Z,15.50
2018-01-28T11:44:17.980Z,15.77
2018-01-28T11:46:46.303Z,15.17
2018-01-28T11:49:14.251Z,15.27
2018-01-28T11:51:41.837Z,14.97
2018-01-28T11:54:10.152Z,15.33
2018-01-28T11:56:38.687Z,15.00
2018-01-28T11:59:06.273Z,15.07
2018-01-28T12:01:33.814Z,14.90
2018-01-28T12:04:01.370Z,15.13
2018-01-28T12:06:28.939Z,14.60
2018-01-28T12:08:57.119Z,15.07
2018-01-28T12:11:25.249Z,14.37
2018-01-28T12:13:52.845Z,13.90
2018-01-28T12:16:20.493Z,14.20
2018-01-28T12:18:48.263Z,13.50
2018-01-28T12:21:15.913Z,13.97
2018-01-28T12:23:43.451Z,13.17
2018-01-28T12:26:11.056Z,12.97
2018-01-28T12:28:38.594Z,13.30
2018-01-28T12:31:06.081Z,12.43
2018-01-28T12:33:33.707Z,12.87
2018-01-28T12:36:01.257Z,13.87
2018-01-28T12:38:28.804Z,13.63
2018-01-28T12:40:56.496Z,12.67
2018-01-28T12:43:24.799Z,14.07
2018-01-28T12:45:52.384Z,15.73
2018-01-28T12:48:20.031Z,13.90
2018-01-28T12:50:48.432Z,12.53
2018-01-28T12:53:16.024Z,14.40
2018-01-28T12:55:43.716Z,13.43
2018-01-28T12:58:11.290Z,12.80
2018-01-28T13:00:38.881Z,12.73
2018-01-28T13:03:07.235Z,13.00
2018-01-28T13:05:34.948Z,11.90
2018-01-28T13:08:02.488Z,12.57
2018-01-28T13:10:30.028Z,12.60
2018-01-28T13:12:57.559Z,13.57
2018-01-28T13:15:25.140Z,12.17
2018-01-28T13:17:52.692Z,11.90
2018-01-28T13:20:20.272Z,12.30
2018-01-28T13:22:47.811Z,12.30
2018-01-28T13:25:16.176Z,11.23
2018-01-28T13:27:44.476Z,12.30
2018-01-28T13:30:12.020Z,11.23
2018-01-28T13:32:39.587Z,11.00
2018-01-28T13:35:07.123Z,11.37
2018-01-28T13:37:34.692Z,11.03
2018-01-28T13:40:02.250Z,11.30
2018-01-28T13:42:30.558Z,10.80
2018-01-28T13:44:58.093Z,11.10
2018-01-28T13:47:26.004Z,10.67
2018-01-28T13:49:54.303Z,11.00
2018-01-28T13:52:21.805Z,9.97
2018-01-28T13:54:49.499Z,10.90
2018-01-28T13:57:17.072Z,11.23
2018-01-28T13:59:44.611Z,11.10
2018-01-28T14:02:12.440Z,11.03
2018-01-28T14:04:39.978Z,11.27
2018-01-28T14:07:07.515Z,10.57
2018-01-28T14:09:35.118Z,10.67
2018-01-28T14:12:03.398Z,9.83
2018-01-28T14:14:31.728Z,10.57
2018-01-28T14:16:59.321Z,9.77
2018-01-28T14:19:26.878Z,10.43
2018-01-28T14:21:54.416Z,9.90
2018-01-28T14:24:22.161Z,10.13
2018-01-28T14:26:49.743Z,11.07
2018-01-28T14:29:17.324Z,11.63
2018-01-28T14:31:44.935Z,13.87
2018-01-28T14:34:12.516Z,10.90
2018-01-28T14:36:40.820Z,11.23
2018-01-28T14:39:08.670Z,12.27
2018-01-28T14:41:36.249Z,10.90
2018-01-28T14:44:03.807Z,11.37
2018-01-28T14:46:31.461Z,11.40
2018-01-28T14:48:59.049Z,11.27
2018-01-28T14:51:27.388Z,11.43
2018-01-28T14:53:55.364Z,11.80
2018-01-28T14:56:23.667Z,11.43
2018-01-28T14:58:51.217Z,11.83
2018-01-28T15:01:18.825Z,11.50
2018-01-28T15:03:46.393Z,10.67
2018-01-28T15:06:13.931Z,11.60
2018-01-28T15:08:41.855Z,11.57
2018-01-28T15:11:10.200Z,11.37
2018-01-28T15:13:37.780Z,10.67
2018-01-28T15:16:05.666Z,11.77
2018-01-28T15:18:33.208Z,10.67
2018-01-28T15:21:00.784Z,10.73
2018-01-28T15:23:28.383Z,10.80
2018-01-28T15:25:56.023Z,11.40
2018-01-28T15:28:23.572Z,10.33
2018-01-28T15:30:51.370Z,11.50
2018-01-28T15:33:18.944Z,10.70
2018-01-28T15:35:46.483Z,9.87
2018-01-28T15:38:14.388Z,11.23
2018-01-28T15:40:42.167Z,10.70
2018-01-28T15:43:10.526Z,9.83
2018-01-28T15:45:38.135Z,9.60
2018-01-28T15:48:05.745Z,10.13
2018-01-28T15:50:33.327Z,10.17
2018-01-28T15:53:01.043Z,9.63
2018-01-28T15:55:28.620Z,10.10
2018-01-28T15:57:56.197Z,10.40
2018-01-28T16:00:24.539Z,10.53
2018-01-28T16:02:52.103Z,9.97
2018-01-28T16:05:19.633Z,10.47
2018-01-28T16:07:47.240Z,11.00
2018-01-28T16:10:14.828Z,10.20
2018-01-28T16:12:42.400Z,10.47
2018-01-28T16:15:10.188Z,10.33
2018-01-28T16:17:38.487Z,10.30
2018-01-28T16:20:06.060Z,9.93
2018-01-28T16:22:34.044Z,10.50
2018-01-28T16:25:02.327Z,10.37
2018-01-28T16:27:30.552Z,10.67
2018-01-28T16:29:58.240Z,11.33
2018-01-28T16:32:25.849Z,11.17
2018-01-28T16:34:54.195Z,10.57
2018-01-28T16:37:22.549Z,11.30
2018-01-28T16:39:50.080Z,11.73
2018-01-28T16:42:17.648Z,10.90
2018-01-28T16:44:45.338Z,11.13
2018-01-28T16:47:12.879Z,11.23
2018-01-28T16:49:40.484Z,11.13
2018-01-28T16:52:08.143Z,10.93
2018-01-28T16:54:35.654Z,11.40
2018-01-28T16:57:03.184Z,11.43
2018-01-28T16:59:30.985Z,11.37
2018-01-28T17:01:59.312Z,10.53
2018-01-28T17:04:26.840Z,11.30
2018-01-28T17:06:54.492Z,10.37
2018-01-28T17:09:22.060Z,10.17
2018-01-28T17:11:49.564Z,10.17
2018-01-28T17:14:17.135Z,10.63
2018-01-28T17:16:44.684Z,10.17
2018-01-28T17:19:12.309Z,9.93
2018-01-28T17:21:39.909Z,9.90
2018-01-28T17:24:07.492Z,10.07
2018-01-28T17:26:35.065Z,10.07
2018-01-28T17:29:02.716Z,10.33
2018-01-28T17:31:30.294Z,10.27
2018-01-28T17:33:57.835Z,10.03
2018-01-28T17:36:25.425Z,9.70
2018-01-28T17:38:52.985Z,9.03
2018-01-28T17:41:20.519Z,9.90
2018-01-28T17:43:48.124Z,9.93
2018-01-28T17:46:15.724Z,10.90
2018-01-28T17:48:43.296Z,10.73
2018-01-28T17:51:12.169Z,9.87
2018-01-28T17:53:40.478Z,10.33
2018-01-28T17:56:08.051Z,9.47
2018-01-28T17:58:35.825Z,9.43
2018-01-28T18:01:04.136Z,10.50
2018-01-28T18:03:31.715Z,10.60
2018-01-28T18:05:59.405Z,10.07
2018-01-28T18:08:26.985Z,10.23
2018-01-28T18:10:54.519Z,9.80
2018-01-28T18:13:22.295Z,9.67
2018-01-28T18:15:49.849Z,10.03
2018-01-28T18:18:18.160Z,9.20
2018-01-28T18:20:45.749Z,9.97
2018-01-28T18:23:13.308Z,9.60
2018-01-28T18:25:40.840Z,9.00
2018-01-28T18:28:08.576Z,9.00
2018-01-28T18:30:36.053Z,9.97
2018-01-28T18:33:04.338Z,9.30
2018-01-28T18:35:31.928Z,8.50
2018-01-28T18:37:59.448Z,8.70
2018-01-28T18:40:26.992Z,9.23
2018-01-28T18:42:54.668Z,8.43
2018-01-28T18:45:22.261Z,9.70
2018-01-28T18:47:49.790Z,9.10
2018-01-28T18:50:17.384Z,9.20
2018-01-28T18:52:45.291Z,9.10
2018-01-28T18:55:12.851Z,9.37
2018-01-28T18:57:40.588Z,10.40
2018-01-28T19:00:08.153Z,9.83
2018-01-28T19:02:35.749Z,10.47
2018-01-28T19:05:04.113Z,9.97
2018-01-28T19:07:32.427Z,10.23
2018-01-28T19:09:59.960Z,8.50
2018-01-28T19:12:27.543Z,9.97
2018-01-28T19:14:55.129Z,10.17
2018-01-28T19:17:22.700Z,9.13
2018-01-28T19:19:50.284Z,8.97
2018-01-28T19:22:18.625Z,8.27
2018-01-28T19:24:46.159Z,8.73
2018-01-28T19:27:13.708Z,8.60
2018-01-28T19:29:41.245Z,9.13
2018-01-28T19:32:08.776Z,9.53
2018-01-28T19:34:36.320Z,8.97
2018-01-28T19:37:03.944Z,9.33
2018-01-28T19:39:31.522Z,9.57
2018-01-28T19:42:00.097Z,9.60
2018-01-28T19:44:27.668Z,10.37
2018-01-28T19:46:55.211Z,10.07
2018-01-28T19:49:22.850Z,10.10
2018-01-28T19:51:50.369Z,8.93
2018-01-28T19:54:18.728Z,9.63
2018-01-28T19:56:47.048Z,10.50
2018-01-28T19:59:14.513Z,9.90
2018-01-28T20:01:42.816Z,10.33
2018-01-28T20:04:10.624Z,9.57
2018-01-28T20:06:38.947Z,9.63
2018-01-28T20:09:06.752Z,11.70
2018-01-28T20:11:34.522Z,11.40
2018-01-28T20:14:03.017Z,10.03
2018-01-28T20:16:30.555Z,10.50
2018-01-28T20:18:58.200Z,10.67
2018-01-28T20:21:25.769Z,12.67
2018-01-28T20:23:54.112Z,11.07
2018-01-28T20:26:21.754Z,10.40
2018-01-28T20:28:49.329Z,9.80
2018-01-28T20:31:17.609Z,8.60
2018-01-28T20:33:45.462Z,8.53
2018-01-28T20:36:12.995Z,9.50
2018-01-28T20:38:40.531Z,9.17
2018-01-28T20:41:08.855Z,9.33
2018-01-28T20:43:36.428Z,9.43
2018-01-28T20:46:04.773Z,10.23
2018-01-28T20:48:32.373Z,10.27
2018-01-28T20:50:59.920Z,10.30
2018-01-28T20:53:27.490Z,10.83
2018-01-28T20:55:55.217Z,11.13
2018-01-28T20:58:22.751Z,11.57
2018-01-28T21:00:50.305Z,12.07
2018-01-28T21:03:18.059Z,11.50
2018-01-28T21:05:45.575Z,11.40
2018-01-28T21:08:13.106Z,10.50
2018-01-28T21:10:40.617Z,10.17
2018-01-28T21:13:08.143Z,11.13
2018-01-28T21:15:35.714Z,10.80
2018-01-28T21:18:03.494Z,11.40
2018-01-28T21:20:31.057Z,11.00
2018-01-28T21:22:58.598Z,11.67
2018-01-28T21:25:26.496Z,11.03
2018-01-28T21:27:54.836Z,10.77
2018-01-28T21:30:22.412Z,11.43
2018-01-28T21:32:49.982Z,10.73
2018-01-28T21:35:17.507Z,10.40
2018-01-28T21:37:45.032Z,9.77
2018-01-28T21:40:12.939Z,10.93
2018-01-28T21:42:40.504Z,10.17
2018-01-28T21:45:08.047Z,10.60
2018-01-28T21:47:35.578Z,10.90
2018-01-28T21:50:03.100Z,11.30
2018-01-28T21:52:30.636Z,11.33
2018-01-28T21:54:58.444Z,11.60
2018-01-28T21:57:26.980Z,12.00
2018-01-28T21:59:54.565Z,11.83
2018-01-28T22:02:22.899Z,12.77
2018-01-28T22:04:50.471Z,12.30
2018-01-28T22:07:18.049Z,11.57
2018-01-28T22:09:45.644Z,12.07
2018-01-28T22:12:13.220Z,11.93
2018-01-28T22:14:40.779Z,11.53
2018-01-28T22:17:08.342Z,13.40
2018-01-28T22:19:35.821Z,12.50
2018-01-28T22:22:04.127Z,12.77
2018-01-28T22:24:31.683Z,12.77
2018-01-28T22:26:59.248Z,12.10
2018-01-28T22:29:26.828Z,12.73
2018-01-28T22:31:55.262Z,12.93
2018-01-28T22:34:22.836Z,13.00
2018-01-28T22:36:50.378Z,12.93
2018-01-28T22:39:18.065Z,12.87
2018-01-28T22:41:45.648Z,12.93
2018-01-28T22:44:13.186Z,13.13
2018-01-28T22:46:41.640Z,13.53
2018-01-28T22:49:09.250Z,13.30
2018-01-28T22:51:36.824Z,13.17
2018-01-28T22:54:04.831Z,13.23
2018-01-28T22:56:32.407Z,12.83
2018-01-28T22:58:59.976Z,13.77
2018-01-28T23:01:34.865Z,13.97
2018-01-28T23:04:02.458Z,13.30
2018-01-28T23:06:30.764Z,13.40
2018-01-28T23:08:59.262Z,12.97
2018-01-28T23:11:26.816Z,13.77
2018-01-28T23:13:54.375Z,14.03
2018-01-28T23:16:22.131Z,13.40
2018-01-28T23:18:49.703Z,13.90
2018-01-28T23:21:18.045Z,13.23
2018-01-28T23:23:45.648Z,13.77
2018-01-28T23:26:13.213Z,12.77
2018-01-28T23:28:40.730Z,13.50
2018-01-28T23:31:09.040Z,13.37
2018-01-28T23:33:36.608Z,13.33
2018-01-28T23:36:04.918Z,13.87
2018-01-28T23:38:32.720Z,14.00
2018-01-28T23:41:01.019Z,13.30
2018-01-28T23:43:28.612Z,13.37
2018-01-28T23:45:56.343Z,13.97
2018-01-28T23:48:23.919Z,13.77
2018-01-28T23:50:52.231Z,13.67
2018-01-28T23:53:20.003Z,13.03
2018-01-28T23:55:47.535Z,14.33
2018-01-28T23:58:15.109Z,14.20
